Time;durP1;ratioP1;P1;durP2;ratioP2;P2;SDS_P1;SDS_P2;PMS_P1;PMS_P2;Temp;Humidity;BMP_temperature;BMP_pressure;BME280_temperature;BME280_humidity;BME280_pressure;Samples;Min_cycle;Max_cycle;Signal;HPM_P1;HPM_P2
2023/11/24 00:00:00;;;;;;;6.27;1.50;;;;;;;7.03;91.18;99937.53;4997746;28;20214;-80
2023/11/24 00:02:27;;;;;;;7.90;1.73;;;;;;;7.00;91.30;99941.22;5001976;28;20228;-80
2023/11/24 00:04:53;;;;;;;7.57;1.17;;;;;;;7.01;92.24;99950.00;5006702;28;20247;-80
2023/11/24 00:07:20;;;;;;;5.90;1.83;;;;;;;7.00;92.57;99949.16;5009710;28;20239;-81
2023/11/24 00:09:49;;;;;;;7.17;1.40;;;;;;;6.99;92.12;99949.28;5009775;28;20608;-81
2023/11/24 00:12:15;;;;;;;7.70;1.40;;;;;;;7.00;92.96;99946.50;5011183;28;20242;-80
2023/11/24 00:14:42;;;;;;;7.53;2.03;;;;;;;6.98;92.22;99948.44;5013991;28;20210;-80
2023/11/24 00:17:09;;;;;;;7.57;2.00;;;;;;;6.96;92.26;99940.56;5013038;28;20230;-80
2023/11/24 00:19:35;;;;;;;9.77;1.67;;;;;;;6.95;92.26;99949.47;5013711;28;20249;-80
2023/11/24 00:22:02;;;;;;;8.73;2.00;;;;;;;6.94;91.94;99946.91;5010024;28;20234;-80
2023/11/24 00:24:29;;;;;;;9.33;2.47;;;;;;;6.91;92.73;99953.22;5013997;28;20206;-81
2023/11/24 00:26:58;;;;;;;9.27;1.90;;;;;;;6.94;92.79;99958.34;5011105;28;20233;-80
2023/11/24 00:29:26;;;;;;;7.80;1.90;;;;;;;6.94;93.02;99950.41;5011965;28;20297;-81
2023/11/24 00:31:53;;;;;;;11.63;2.17;;;;;;;6.96;93.26;99951.16;5016748;28;20207;-81
2023/11/24 00:34:22;;;;;;;13.10;2.50;;;;;;;6.96;93.29;99950.31;5013365;28;20233;-80
2023/11/24 00:36:49;;;;;;;9.20;2.70;;;;;;;6.94;93.91;99945.09;5011288;28;20226;-82
2023/11/24 00:39:16;;;;;;;6.13;1.90;;;;;;;6.93;94.33;99943.41;5016357;28;20210;-80
2023/11/24 00:41:43;;;;;;;9.73;1.90;;;;;;;6.96;94.13;99951.16;5003995;28;20208;-82
2023/11/24 00:44:11;;;;;;;6.90;1.73;;;;;;;6.94;94.35;99954.84;5015672;28;20594;-80
2023/11/24 00:46:37;;;;;;;10.63;1.87;;;;;;;6.95;94.10;99957.41;5009392;28;20592;-80
2023/11/24 00:49:04;;;;;;;7.97;1.37;;;;;;;6.93;95.33;99980.47;5011600;28;20203;-80
2023/11/24 00:51:30;;;;;;;4.57;1.07;;;;;;;6.90;93.90;99977.13;5014199;28;20581;-81
2023/11/24 00:53:57;;;;;;;4.73;0.97;;;;;;;6.80;94.15;99976.84;5009300;28;20203;-80
2023/11/24 00:56:23;;;;;;;3.80;0.93;;;;;;;6.70;96.48;99983.59;5010766;28;20572;-79
2023/11/24 00:58:50;;;;;;;3.23;0.77;;;;;;;6.65;96.79;99971.56;5010470;28;20211;-79
2023/11/24 01:01:18;;;;;;;6.00;1.40;;;;;;;6.56;97.95;99965.88;5008561;28;20214;-79
2023/11/24 01:03:45;;;;;;;5.07;1.40;;;;;;;6.54;99.52;99980.13;5002880;28;20227;-80
2023/11/24 01:06:12;;;;;;;8.73;1.60;;;;;;;6.51;98.73;99969.72;5009281;28;20663;-80
2023/11/24 01:08:39;;;;;;;5.97;1.13;;;;;;;6.47;97.94;99973.47;5011153;28;20211;-79
2023/11/24 01:11:06;;;;;;;11.00;2.10;;;;;;;6.43;97.89;99977.25;5012456;28;20209;-79
2023/11/24 01:13:35;;;;;;;7.53;1.40;;;;;;;6.39;97.52;99979.22;5009392;28;20235;-79
2023/11/24 01:16:02;;;;;;;3.87;1.20;;;;;;;6.36;96.90;99991.75;5007215;28;20289;-80
2023/11/24 01:18:30;;;;;;;8.07;1.17;;;;;;;6.33;96.86;99986.63;5006417;28;20227;-80
2023/11/24 01:20:57;;;;;;;8.23;1.10;;;;;;;6.26;96.53;99981.72;5005625;28;20203;-80
2023/11/24 01:23:26;;;;;;;5.13;1.20;;;;;;;6.25;96.11;99985.28;5010442;28;20261;-80
2023/11/24 01:25:54;;;;;;;5.63;1.00;;;;;;;6.23;96.04;99984.53;5012155;28;20210;-80
2023/11/24 01:28:20;;;;;;;5.10;0.97;;;;;;;6.19;96.24;99996.19;5007787;28;20242;-80
2023/11/24 01:30:47;;;;;;;6.27;1.53;;;;;;;6.17;96.61;99987.50;5010982;28;20682;-80
2023/11/24 01:33:13;;;;;;;4.40;1.10;;;;;;;6.15;96.61;99997.28;5010988;28;20221;-79
2023/11/24 01:35:41;;;;;;;4.67;1.23;;;;;;;6.14;97.53;100002.66;5011063;28;20214;-79
2023/11/24 01:38:09;;;;;;;5.50;1.07;;;;;;;6.13;97.59;99990.38;5001510;28;20704;-79
2023/11/24 01:40:37;;;;;;;5.47;1.17;;;;;;;6.13;97.28;99995.66;5000314;28;20699;-80
2023/11/24 01:43:03;;;;;;;3.67;1.00;;;;;;;6.11;97.88;99987.81;5005617;28;20266;-80
2023/11/24 01:45:31;;;;;;;5.30;1.00;;;;;;;6.12;97.27;99972.81;5010434;28;20222;-80
2023/11/24 01:47:57;;;;;;;7.30;1.43;;;;;;;6.13;97.58;99958.66;5011848;28;20250;-80
2023/11/24 01:50:24;;;;;;;6.70;2.00;;;;;;;6.13;96.64;99969.22;5004769;28;20207;-79
2023/11/24 01:52:52;;;;;;;6.37;1.13;;;;;;;6.10;96.42;99951.75;5011673;28;20207;-80
2023/11/24 01:55:23;;;;;;;11.67;2.43;;;;;;;6.09;95.44;99957.97;5009159;28;20237;-80
2023/11/24 01:57:52;;;;;;;14.30;1.87;;;;;;;6.08;95.42;99945.72;5006149;28;20224;-80
2023/11/24 02:00:18;;;;;;;6.43;1.50;;;;;;;6.06;94.35;99952.88;5005159;28;20207;-80
2023/11/24 02:02:45;;;;;;;11.33;3.40;;;;;;;6.07;93.03;99949.31;5011834;28;20265;-80
2023/11/24 02:05:12;;;;;;;10.83;1.70;;;;;;;6.06;92.31;99944.94;5009762;28;20207;-79
2023/11/24 02:07:39;;;;;;;9.10;1.87;;;;;;;6.06;91.98;99942.31;5010511;28;20223;-80
2023/11/24 02:10:08;;;;;;;15.50;2.27;;;;;;;6.06;91.57;99936.16;5008020;28;20210;-79
2023/11/24 02:12:33;;;;;;;16.90;2.80;;;;;;;6.04;91.34;99944.19;5009707;28;20203;-80
2023/11/24 02:15:00;;;;;;;13.20;2.23;;;;;;;6.04;90.84;99938.91;5005800;28;20687;-81
2023/11/24 02:17:26;;;;;;;9.33;2.40;;;;;;;6.05;90.68;99934.47;5009079;28;20248;-80
2023/11/24 02:19:56;;;;;;;15.90;2.33;;;;;;;6.05;91.59;99937.97;5010984;28;20240;-80
2023/11/24 02:22:23;;;;;;;11.87;2.53;;;;;;;6.07;90.52;99928.16;5010670;28;20600;-80
2023/11/24 02:24:51;;;;;;;9.23;1.87;;;;;;;6.04;90.37;99914.25;5006961;28;20602;-80
2023/11/24 02:27:20;;;;;;;14.00;3.50;;;;;;;6.04;90.79;99919.53;5005516;28;20322;-79
2023/11/24 02:29:47;;;;;;;10.23;2.50;;;;;;;6.03;90.79;99910.75;5012267;28;20261;-80
2023/11/24 02:32:14;;;;;;;10.87;2.33;;;;;;;6.04;90.72;99911.59;5004438;28;20211;-80
2023/11/24 02:34:40;;;;;;;13.50;2.17;;;;;;;6.03;90.73;99916.03;5004481;28;20245;-80
2023/11/24 02:37:07;;;;;;;11.27;2.20;;;;;;;6.01;90.51;99925.84;5009093;28;20235;-80
2023/11/24 02:39:36;;;;;;;11.70;2.37;;;;;;;6.01;89.82;99896.78;5004759;28;20226;-80
2023/11/24 02:42:04;;;;;;;9.37;2.83;;;;;;;5.97;89.07;99899.66;5010536;28;20289;-80
2023/11/24 02:44:31;;;;;;;14.80;2.50;;;;;;;5.93;88.25;99910.41;5009109;28;20230;-80
2023/11/24 02:46:57;;;;;;;15.20;3.57;;;;;;;5.93;88.63;99905.13;5010954;28;20239;-80
2023/11/24 02:49:24;;;;;;;16.73;2.50;;;;;;;5.92;88.34;99911.34;5011898;28;20202;-80
2023/11/24 02:51:50;;;;;;;10.30;2.40;;;;;;;5.92;88.05;99921.06;5012983;28;20207;-80
2023/11/24 02:54:16;;;;;;;13.47;2.40;;;;;;;5.91;87.72;99924.66;5012201;28;20218;-79
2023/11/24 02:56:43;;;;;;;13.33;2.20;;;;;;;5.89;88.38;99924.75;5011682;28;20230;-79
2023/11/24 02:59:11;;;;;;;10.87;1.93;;;;;;;5.89;88.23;99913.31;5011127;28;20242;-80
2023/11/24 03:01:37;;;;;;;14.23;3.07;;;;;;;5.88;87.40;99916.88;5006320;28;20214;-80
2023/11/24 03:04:04;;;;;;;11.73;2.03;;;;;;;5.85;87.54;99909.13;5011311;28;20231;-80
2023/11/24 03:06:31;;;;;;;10.43;2.07;;;;;;;5.80;87.48;99916.44;5010102;28;20318;-80
2023/11/24 03:09:00;;;;;;;7.13;1.83;;;;;;;5.78;87.33;99916.50;5010890;28;20211;-80
2023/11/24 03:11:30;;;;;;;10.77;2.07;;;;;;;5.76;87.44;99917.53;5007361;28;20667;-80
2023/11/24 03:13:56;;;;;;;17.37;3.13;;;;;;;5.75;87.05;99897.31;5002904;28;20210;-80
2023/11/24 03:16:24;;;;;;;9.37;1.67;;;;;;;5.76;87.55;99899.03;5008570;28;20230;-81
2023/11/24 03:18:50;;;;;;;11.37;2.57;;;;;;;5.76;87.86;99901.69;5009984;28;20211;-80
2023/11/24 03:21:17;;;;;;;8.43;1.73;;;;;;;5.76;88.13;99906.97;5005955;28;20207;-80
2023/11/24 03:23:45;;;;;;;15.40;2.67;;;;;;;5.80;88.49;99895.28;5010888;28;20265;-80
2023/11/24 03:26:11;;;;;;;10.03;2.13;;;;;;;5.77;88.29;99892.81;5009547;28;20214;-81
2023/11/24 03:28:38;;;;;;;12.63;2.67;;;;;;;5.75;88.93;99884.97;5012414;28;20203;-81
2023/11/24 03:31:05;;;;;;;9.60;1.93;;;;;;;5.75;88.69;99892.03;5013166;28;20207;-81
2023/11/24 03:33:35;;;;;;;9.00;2.13;;;;;;;5.73;88.63;99881.56;5005653;28;20211;-80
2023/11/24 03:36:01;;;;;;;8.90;1.87;;;;;;;5.71;88.60;99878.19;5010825;28;20217;-80
2023/11/24 03:38:30;;;;;;;14.87;2.30;;;;;;;5.71;88.53;99880.81;5009500;28;20226;-80
2023/11/24 03:40:58;;;;;;;11.47;2.27;;;;;;;5.70;88.17;99881.75;5005377;28;20215;-80
2023/11/24 03:43:24;;;;;;;12.40;2.07;;;;;;;5.70;88.50;99878.25;5005926;28;20239;-80
2023/11/24 03:45:51;;;;;;;10.37;2.50;;;;;;;5.68;88.97;99872.22;5004899;28;20208;-80
2023/11/24 03:48:21;;;;;;;17.57;2.17;;;;;;;5.70;89.34;99862.41;5010713;28;20226;-81
2023/11/24 03:50:49;;;;;;;12.03;3.23;;;;;;;5.68;88.40;99867.78;5006380;28;20622;-81
2023/11/24 03:53:15;;;;;;;12.23;2.17;;;;;;;5.68;88.64;99880.13;5014682;28;20297;-80
2023/11/24 03:55:42;;;;;;;13.17;2.30;;;;;;;5.67;88.67;99867.84;5015081;28;20261;-80
2023/11/24 03:58:09;;;;;;;9.47;1.90;;;;;;;5.66;89.23;99871.44;5015137;28;20242;-80
2023/11/24 04:00:35;;;;;;;8.57;2.07;;;;;;;5.63;89.07;99864.53;5011947;28;20207;-81
2023/11/24 04:03:02;;;;;;;7.47;1.67;;;;;;;5.63;88.76;99853.09;5008412;28;20229;-80
2023/11/24 04:05:29;;;;;;;10.03;1.57;;;;;;;5.65;89.12;99851.25;5014277;28;20647;-80
2023/11/24 04:07:57;;;;;;;9.10;1.87;;;;;;;5.67;89.36;99829.09;5015042;28;20250;-80
2023/11/24 04:10:24;;;;;;;9.73;1.70;;;;;;;5.66;89.14;99837.09;5014140;28;20207;-80
2023/11/24 04:12:51;;;;;;;13.00;2.47;;;;;;;5.64;89.97;99828.41;5002735;28;20258;-79
2023/11/24 04:15:19;;;;;;;9.67;1.80;;;;;;;5.62;89.41;99825.84;5013643;28;20230;-79
2023/11/24 04:17:46;;;;;;;10.83;2.43;;;;;;;5.61;89.47;99818.00;5014360;28;20934;-79
2023/11/24 04:20:13;;;;;;;10.10;2.00;;;;;;;5.58;88.50;99801.38;5015127;28;20679;-80
2023/11/24 04:22:39;;;;;;;11.40;2.17;;;;;;;5.54;88.87;99810.44;5014495;28;20242;-80
2023/11/24 04:25:09;;;;;;;6.77;1.70;;;;;;;5.52;88.08;99825.53;5014111;28;20230;-80
2023/11/24 04:27:35;;;;;;;9.40;2.03;;;;;;;5.47;87.22;99817.00;5012914;28;20297;-80
2023/11/24 04:30:02;;;;;;;10.73;1.87;;;;;;;5.46;87.11;99817.06;4999511;28;20211;-79
2023/11/24 04:32:30;;;;;;;9.60;2.10;;;;;;;5.46;86.81;99815.28;5009423;28;20471;-81
2023/11/24 04:34:57;;;;;;;9.33;2.10;;;;;;;5.51;87.09;99815.88;5014332;28;20702;-80
2023/11/24 04:37:23;;;;;;;11.07;1.77;;;;;;;5.55;86.55;99816.56;5010905;28;20230;-80
2023/11/24 04:39:50;;;;;;;7.97;1.43;;;;;;;5.55;87.20;99817.41;5014190;28;20237;-79
2023/11/24 04:42:18;;;;;;;9.00;1.80;;;;;;;5.56;87.54;99815.59;5014075;28;20215;-80
2023/11/24 04:44:45;;;;;;;5.93;1.43;;;;;;;5.57;87.91;99818.16;5011901;28;20365;-80
2023/11/24 04:47:12;;;;;;;10.80;1.57;;;;;;;5.57;88.53;99823.44;5009774;28;20254;-79
2023/11/24 04:49:39;;;;;;;7.10;1.90;;;;;;;5.55;88.56;99825.31;5013738;28;20598;-80
2023/11/24 04:52:05;;;;;;;11.53;1.70;;;;;;;5.53;88.90;99824.59;5012218;28;20282;-80
2023/11/24 04:54:32;;;;;;;8.63;2.40;;;;;;;5.56;89.64;99824.38;5019880;28;20229;-80
2023/11/24 04:56:58;;;;;;;9.57;1.60;;;;;;;5.54;89.74;99818.38;5016454;28;20759;-81
2023/11/24 04:59:27;;;;;;;7.17;1.30;;;;;;;5.58;89.75;99822.50;5012728;28;20817;-80
2023/11/24 05:01:54;;;;;;;8.40;1.40;;;;;;;5.55;89.42;99812.13;5005470;28;20242;-80
2023/11/24 05:04:20;;;;;;;8.90;1.50;;;;;;;5.52;89.96;99820.25;5013776;28;20500;-80
2023/11/24 05:06:46;;;;;;;5.60;1.00;;;;;;;5.52;90.44;99825.53;5011802;28;20242;-81
2023/11/24 05:09:13;;;;;;;8.50;1.97;;;;;;;5.49;90.85;99835.41;4999995;28;20199;-80
2023/11/24 05:11:40;;;;;;;4.37;1.47;;;;;;;5.47;91.99;99832.84;5009384;28;20677;-80
2023/11/24 05:14:07;;;;;;;7.27;1.40;;;;;;;5.46;92.75;99820.56;5009807;28;20214;-81
2023/11/24 05:16:35;;;;;;;6.50;1.10;;;;;;;5.45;94.01;99816.22;5013916;28;20219;-81
2023/11/24 05:19:01;;;;;;;6.57;1.23;;;;;;;5.43;95.06;99815.44;5006981;28;20217;-81
2023/11/24 05:21:28;;;;;;;6.47;1.20;;;;;;;5.41;96.43;99814.69;5011654;28;20218;-81
2023/11/24 05:23:54;;;;;;;3.13;1.33;;;;;;;5.37;95.98;99820.25;5011261;28;20223;-80
2023/11/24 05:26:23;;;;;;;6.17;1.33;;;;;;;5.30;96.13;99808.31;5013066;28;20579;-81
2023/11/24 05:28:49;;;;;;;3.93;0.70;;;;;;;5.20;96.58;99814.06;5011452;28;20207;-80
2023/11/24 05:31:16;;;;;;;3.93;0.80;;;;;;;5.18;97.24;99809.84;5008371;28;20214;-80
2023/11/24 05:33:43;;;;;;;2.60;0.80;;;;;;;5.14;97.31;99803.00;5011450;28;20684;-80
2023/11/24 05:36:10;;;;;;;4.03;0.83;;;;;;;5.10;97.54;99804.97;5012158;28;20207;-81
2023/11/24 05:38:37;;;;;;;2.00;0.70;;;;;;;5.04;98.03;99807.91;5013860;28;20599;-80
2023/11/24 05:41:04;;;;;;;5.10;0.70;;;;;;;5.00;98.39;99802.91;5005253;28;20203;-81
2023/11/24 05:43:31;;;;;;;1.37;0.50;;;;;;;4.97;98.69;99805.72;5009731;28;20226;-79
2023/11/24 05:45:58;;;;;;;2.40;0.57;;;;;;;4.93;98.41;99809.44;5011133;28;20211;-80
2023/11/24 05:48:25;;;;;;;2.50;0.60;;;;;;;4.88;98.65;99797.34;5013553;28;20272;-81
2023/11/24 05:50:53;;;;;;;3.40;0.70;;;;;;;4.85;98.76;99794.88;5012603;28;20762;-80
2023/11/24 05:53:19;;;;;;;3.17;0.60;;;;;;;4.82;98.81;99810.03;5012580;28;20211;-80
2023/11/24 05:55:46;;;;;;;4.33;0.63;;;;;;;4.79;98.32;99794.34;4999278;28;20311;-80
2023/11/24 05:58:12;;;;;;;4.67;1.40;;;;;;;4.76;98.35;99795.38;5005974;28;20222;-80
2023/11/24 06:00:38;;;;;;;7.93;1.17;;;;;;;4.73;98.23;99794.66;5008431;28;20199;-81
2023/11/24 06:03:05;;;;;;;4.27;0.93;;;;;;;4.69;98.18;99782.56;5004749;28;20203;-80
2023/11/24 06:05:32;;;;;;;5.07;1.23;;;;;;;4.69;98.08;99779.94;5008084;28;20223;-80
2023/11/24 06:08:02;;;;;;;4.53;1.10;;;;;;;4.63;97.64;99769.72;5012864;28;20305;-79
2023/11/24 06:10:28;;;;;;;5.30;0.87;;;;;;;4.63;96.90;99767.09;5010310;28;20211;-81
2023/11/24 06:12:55;;;;;;;7.07;1.27;;;;;;;4.61;96.48;99783.00;5005869;28;20213;-80
2023/11/24 06:15:21;;;;;;;4.77;1.00;;;;;;;4.58;96.30;99788.41;5012025;28;20202;-80
2023/11/24 06:17:49;;;;;;;9.37;1.43;;;;;;;4.59;96.14;99787.50;5009853;28;20226;-81
2023/11/24 06:20:15;;;;;;;5.43;1.17;;;;;;;4.60;95.96;99786.56;5011734;28;20257;-80
2023/11/24 06:22:43;;;;;;;2.93;0.93;;;;;;;4.57;95.66;99776.16;5012250;28;20706;-81
2023/11/24 06:25:11;;;;;;;6.93;1.20;;;;;;;4.56;95.47;99776.25;5011354;28;20277;-80
2023/11/24 06:27:38;;;;;;;5.13;1.00;;;;;;;4.56;95.39;99778.88;5009496;28;20289;-80
2023/11/24 06:30:06;;;;;;;4.07;0.90;;;;;;;4.56;95.14;99785.00;5011140;28;20199;-80
2023/11/24 06:32:33;;;;;;;6.30;1.03;;;;;;;4.57;94.78;99792.00;5008570;28;20306;-80
2023/11/24 06:35:00;;;;;;;4.50;1.00;;;;;;;4.56;94.87;99782.38;5010592;28;20203;-81
2023/11/24 06:37:26;;;;;;;2.47;0.80;;;;;;;4.55;95.03;99791.22;5012914;28;20318;-82
2023/11/24 06:39:53;;;;;;;4.10;0.80;;;;;;;4.53;94.89;99799.19;5012763;28;20215;-82
2023/11/24 06:42:20;;;;;;;2.77;0.70;;;;;;;4.57;94.93;99792.00;5013005;28;20210;-81
2023/11/24 06:44:47;;;;;;;5.63;0.90;;;;;;;4.57;94.60;99792.00;5011448;28;20226;-82
2023/11/24 06:47:13;;;;;;;4.07;0.90;;;;;;;4.58;94.96;99793.69;5012590;28;20227;-81
2023/11/24 06:49:40;;;;;;;3.67;0.90;;;;;;;4.59;94.66;99792.78;4992577;28;20714;-82
2023/11/24 06:52:06;;;;;;;4.77;1.37;;;;;;;4.58;94.14;99803.41;4997237;28;20199;-82
2023/11/24 06:54:34;;;;;;;3.37;0.87;;;;;;;4.58;93.29;99785.78;5012709;28;20233;-82
2023/11/24 06:57:00;;;;;;;5.07;1.10;;;;;;;4.60;92.59;99789.19;5003519;28;20210;-82
2023/11/24 06:59:28;;;;;;;3.00;0.90;;;;;;;4.59;92.76;99779.59;5012349;28;20219;-82
2023/11/24 07:01:54;;;;;;;4.70;0.77;;;;;;;4.58;92.21;99772.59;5011804;28;20708;-82
2023/11/24 07:04:23;;;;;;;3.27;0.90;;;;;;;4.59;92.00;99776.94;5011966;28;20696;-82
2023/11/24 07:06:49;;;;;;;9.37;1.10;;;;;;;4.59;92.00;99784.84;5009680;28;20230;-80
2023/11/24 07:09:16;;;;;;;6.00;1.60;;;;;;;4.60;91.94;99776.00;4992342;28;20576;-82
2023/11/24 07:11:43;;;;;;;6.67;1.23;;;;;;;4.67;91.83;99781.78;4993122;28;20214;-83
2023/11/24 07:14:10;;;;;;;4.33;0.90;;;;;;;4.63;91.63;99778.50;4992218;28;20668;-82
2023/11/24 07:16:37;;;;;;;2.53;1.03;;;;;;;4.66;91.52;99780.94;5008926;28;20289;-82
2023/11/24 07:19:05;;;;;;;6.33;1.27;;;;;;;4.71;91.11;99778.94;5012464;28;20213;-81
2023/11/24 07:21:31;;;;;;;8.10;1.40;;;;;;;4.73;90.97;99776.22;5011799;28;20214;-82
2023/11/24 07:23:58;;;;;;;4.97;1.00;;;;;;;4.73;91.11;99766.50;5016441;28;20226;-81
2023/11/24 07:26:24;;;;;;;4.67;1.13;;;;;;;4.77;90.98;99775.97;5016180;28;20241;-81
2023/11/24 07:28:51;;;;;;;3.80;1.00;;;;;;;4.76;91.61;99766.34;5015802;28;20217;-80
2023/11/24 07:31:17;;;;;;;4.43;0.90;;;;;;;4.80;91.31;99780.22;5016520;28;20217;-81
2023/11/24 07:33:47;;;;;;;3.00;0.90;;;;;;;4.81;91.25;99772.25;5015629;28;20210;-82
2023/11/24 07:36:15;;;;;;;5.07;1.40;;;;;;;4.82;92.14;99773.94;5015613;28;20225;-81
2023/11/24 07:38:42;;;;;;;7.53;1.93;;;;;;;4.80;91.99;99767.91;5016383;28;20211;-81
2023/11/24 07:41:09;;;;;;;4.37;0.87;;;;;;;4.83;92.53;99772.16;5015010;28;20206;-81
2023/11/24 07:43:36;;;;;;;5.33;1.53;;;;;;;4.84;93.34;99774.69;5017061;28;20202;-81
2023/11/24 07:46:06;;;;;;;3.17;0.90;;;;;;;4.82;92.43;99771.31;5015715;28;20229;-82
2023/11/24 07:48:33;;;;;;;6.23;0.97;;;;;;;4.82;92.06;99760.75;5012899;28;20592;-81
2023/11/24 07:51:01;;;;;;;6.43;1.23;;;;;;;4.80;92.02;99757.34;5014544;28;20269;-82
2023/11/24 07:53:28;;;;;;;6.17;1.20;;;;;;;4.78;92.76;99748.66;5014865;28;20207;-82
2023/11/24 07:55:54;;;;;;;6.00;1.20;;;;;;;4.77;92.48;99759.28;5007924;28;20208;-81
2023/11/24 07:58:20;;;;;;;3.73;1.03;;;;;;;4.77;93.05;99757.50;5009496;28;20223;-81
2023/11/24 08:00:47;;;;;;;3.43;0.77;;;;;;;4.77;93.42;99760.13;5016670;28;20636;-81
2023/11/24 08:03:13;;;;;;;2.67;0.83;;;;;;;4.80;93.32;99751.22;5015318;28;20209;-80
2023/11/24 08:05:40;;;;;;;3.63;0.90;;;;;;;4.77;93.37;99744.31;5007145;28;20338;-81
2023/11/24 08:08:09;;;;;;;3.27;0.60;;;;;;;4.77;93.12;99741.69;5005969;28;20238;-80
2023/11/24 08:10:36;;;;;;;6.53;1.10;;;;;;;4.78;93.75;99742.53;5013903;28;20549;-81
2023/11/24 08:13:03;;;;;;;6.27;1.43;;;;;;;4.79;94.42;99739.81;5014748;28;20207;-81
2023/11/24 08:15:29;;;;;;;5.07;1.20;;;;;;;4.80;94.16;99715.13;5015548;28;20214;-80
2023/11/24 08:17:57;;;;;;;4.00;1.40;;;;;;;4.84;93.67;99731.63;5014391;28;20218;-80
2023/11/24 08:20:23;;;;;;;8.33;1.60;;;;;;;4.83;94.03;99741.34;5015053;28;20686;-81
2023/11/24 08:22:50;;;;;;;5.07;0.90;;;;;;;4.85;94.17;99738.59;5012798;28;20207;-80
2023/11/24 08:25:18;;;;;;;8.70;1.50;;;;;;;4.81;94.46;99730.03;5001853;28;20227;-80
2023/11/24 08:27:46;;;;;;;4.67;1.27;;;;;;;4.83;94.30;99733.44;5012726;28;20226;-80
2023/11/24 08:30:13;;;;;;;5.07;1.00;;;;;;;4.84;94.23;99707.88;5010342;28;20231;-80
2023/11/24 08:32:40;;;;;;;2.90;0.97;;;;;;;4.83;94.73;99717.63;5001483;28;20219;-81
2023/11/24 08:35:08;;;;;;;4.27;1.17;;;;;;;4.84;94.75;99721.06;5014125;28;20651;-81
2023/11/24 08:37:35;;;;;;;3.00;0.90;;;;;;;4.87;94.62;99705.94;5013812;28;20658;-81
2023/11/24 08:40:04;;;;;;;4.63;1.00;;;;;;;4.91;94.01;99711.03;5015483;28;20207;-82
2023/11/24 08:42:33;;;;;;;3.83;0.90;;;;;;;4.89;94.00;99719.91;5014337;28;20238;-82
2023/11/24 08:45:00;;;;;;;3.50;0.70;;;;;;;4.89;93.49;99717.25;5005696;28;20228;-82
2023/11/24 08:47:27;;;;;;;5.67;0.97;;;;;;;4.92;94.10;99704.84;5014438;28;20231;-82
2023/11/24 08:49:54;;;;;;;4.83;1.10;;;;;;;4.88;93.37;99709.44;5013561;28;20579;-81
2023/11/24 08:52:20;;;;;;;3.37;0.80;;;;;;;4.86;93.07;99714.78;5014487;28;20601;-82
2023/11/24 08:54:47;;;;;;;3.40;0.90;;;;;;;4.83;93.78;99720.25;5013568;28;20210;-82
2023/11/24 08:57:13;;;;;;;5.77;0.90;;;;;;;4.84;94.36;99692.91;5013972;28;20244;-81
2023/11/24 08:59:42;;;;;;;4.40;0.87;;;;;;;4.82;93.24;99697.44;5006531;28;20207;-82
2023/11/24 09:02:08;;;;;;;3.73;0.70;;;;;;;4.79;92.67;99684.41;5005470;28;20207;-82
2023/11/24 09:04:34;;;;;;;2.20;0.50;;;;;;;4.72;92.47;99680.41;5013900;28;20218;-80
2023/11/24 09:07:01;;;;;;;2.03;0.50;;;;;;;4.69;92.92;99672.66;5030280;28;20245;-82
2023/11/24 09:09:28;;;;;;;3.30;1.00;;;;;;;4.69;93.03;99671.78;5033677;28;20210;-82
2023/11/24 09:11:55;;;;;;;5.33;0.80;;;;;;;4.70;92.85;99674.34;5015830;28;20295;-81
2023/11/24 09:14:22;;;;;;;6.70;1.63;;;;;;;4.74;92.87;99672.41;5012901;28;20214;-81
2023/11/24 09:16:50;;;;;;;2.70;0.73;;;;;;;4.80;93.01;99674.72;5013553;28;20234;-81
2023/11/24 09:19:17;;;;;;;3.40;0.70;;;;;;;4.83;93.27;99656.94;5013531;28;20254;-82
2023/11/24 09:21:43;;;;;;;2.93;0.60;;;;;;;4.82;92.42;99654.38;5012904;28;20220;-82
2023/11/24 09:24:11;;;;;;;3.47;0.80;;;;;;;4.87;91.83;99657.59;5002374;28;20222;-81
2023/11/24 09:26:38;;;;;;;2.20;0.50;;;;;;;4.91;91.54;99660.91;5008246;28;20235;-81
2023/11/24 09:29:04;;;;;;;2.53;0.90;;;;;;;4.93;91.62;99651.13;5002747;28;20211;-81
2023/11/24 09:31:34;;;;;;;3.90;0.83;;;;;;;4.96;91.57;99643.06;5007062;28;20958;-82
2023/11/24 09:34:02;;;;;;;4.07;0.93;;;;;;;4.98;90.31;99628.84;5013238;28;20588;-82
2023/11/24 09:36:28;;;;;;;5.60;1.17;;;;;;;4.95;89.86;99646.63;5013914;28;20210;-80
2023/11/24 09:38:55;;;;;;;2.43;0.87;;;;;;;4.97;89.01;99647.41;5012597;28;20210;-82
2023/11/24 09:41:23;;;;;;;3.33;0.70;;;;;;;4.97;88.78;99639.47;5013429;28;20218;-81
2023/11/24 09:43:50;;;;;;;5.27;1.40;;;;;;;4.92;87.70;99633.59;5013845;28;20229;-82
2023/11/24 09:46:16;;;;;;;3.50;1.00;;;;;;;4.92;87.74;99634.44;5010977;28;20238;-82
2023/11/24 09:48:43;;;;;;;4.63;0.80;;;;;;;4.97;88.18;99621.84;5013914;28;20206;-81
2023/11/24 09:51:16;;;;;;;5.17;0.83;;;;;;;5.00;86.79;99618.19;5012745;28;20246;-81
2023/11/24 09:53:43;;;;;;;3.90;0.77;;;;;;;4.99;86.79;99619.13;5012870;28;20195;-82
2023/11/24 09:56:10;;;;;;;2.70;1.00;;;;;;;5.05;86.50;99613.50;5013340;28;20215;-81
2023/11/24 09:58:36;;;;;;;4.17;0.73;;;;;;;5.05;86.69;99609.06;5012304;28;20258;-83
2023/11/24 10:01:13;;;;;;;5.53;0.90;;;;;;;5.07;86.43;99609.81;5012978;28;20257;-83
2023/11/24 10:03:40;;;;;;;7.80;1.10;;;;;;;5.11;86.18;99610.50;5012663;28;20222;-81
2023/11/24 10:06:08;;;;;;;2.73;0.90;;;;;;;5.14;85.60;99610.34;5012703;28;20254;-81
2023/11/24 10:08:37;;;;;;;8.40;1.43;;;;;;;5.11;84.82;99602.59;5012939;28;20743;-82
2023/11/24 10:11:14;;;;;;;5.37;1.57;;;;;;;5.11;84.85;99603.44;5011941;28;20207;-82
2023/11/24 10:13:42;;;;;;;3.33;0.70;;;;;;;5.10;83.29;99590.34;5012707;28;20187;-81
2023/11/24 10:16:10;;;;;;;4.50;1.53;;;;;;;5.09;83.57;99583.34;5012046;28;20234;-81
2023/11/24 10:18:38;;;;;;;5.63;0.77;;;;;;;5.11;83.99;99578.84;5012266;28;20227;-81
2023/11/24 10:21:06;;;;;;;2.00;0.67;;;;;;;5.08;84.10;99587.78;4994540;28;20207;-82
2023/11/24 10:23:33;;;;;;;3.50;0.83;;;;;;;5.12;84.16;99570.84;4992779;28;20274;-81
2023/11/24 10:26:01;;;;;;;2.37;0.57;;;;;;;5.14;83.67;99576.88;4993000;28;20593;-81
2023/11/24 10:28:28;;;;;;;2.57;0.73;;;;;;;5.10;83.74;99569.22;4992348;28;20278;-83
2023/11/24 10:30:55;;;;;;;4.57;0.93;;;;;;;5.07;82.95;99567.59;4992398;28;20211;-82
2023/11/24 10:33:22;;;;;;;3.53;0.70;;;;;;;5.07;83.50;99561.47;4994048;28;20223;-81
2023/11/24 10:35:49;;;;;;;2.73;1.17;;;;;;;5.09;84.06;99551.69;4992217;28;20303;-82
2023/11/24 10:38:19;;;;;;;5.00;0.80;;;;;;;5.09;84.17;99567.53;5010720;28;20719;-81
2023/11/24 10:40:47;;;;;;;3.47;0.60;;;;;;;5.09;85.09;99546.41;5013071;28;20206;-82
2023/11/24 10:43:16;;;;;;;4.13;0.70;;;;;;;5.09;86.13;99549.03;5013094;28;20785;-82
2023/11/24 10:45:47;;;;;;;4.13;1.10;;;;;;;5.10;86.79;99553.38;5013178;28;20235;-81
2023/11/24 10:48:16;;;;;;;3.00;0.73;;;;;;;5.13;87.46;99547.94;5014381;28;20265;-81
2023/11/24 10:50:47;;;;;;;4.33;1.20;;;;;;;5.14;86.93;99539.94;5013878;28;20215;-81
2023/11/24 10:53:19;;;;;;;3.93;1.00;;;;;;;5.14;86.91;99539.06;5014857;28;20602;-82
2023/11/24 10:55:47;;;;;;;5.07;1.00;;;;;;;5.12;87.52;99538.31;5013215;28;20191;-81
2023/11/24 10:58:16;;;;;;;4.43;0.93;;;;;;;5.13;86.99;99516.25;5013095;28;20223;-81
2023/11/24 11:00:44;;;;;;;3.53;0.90;;;;;;;5.10;86.34;99532.28;5015634;28;20210;-82
2023/11/24 11:03:13;;;;;;;8.80;2.13;;;;;;;5.12;86.26;99539.16;5012982;28;20217;-82
2023/11/24 11:05:52;;;;;;;4.60;0.90;;;;;;;5.12;86.27;99533.88;5015852;28;20230;-81
2023/11/24 11:08:28;;;;;;;3.57;0.80;;;;;;;5.14;86.06;99528.53;5014348;28;20233;-82
2023/11/24 11:11:15;;;;;;;4.40;0.90;;;;;;;5.14;85.96;99515.31;5014754;28;20198;-83
2023/11/24 11:13:44;;;;;;;3.63;0.87;;;;;;;5.18;86.38;99517.69;5014206;28;20192;-81
2023/11/24 11:16:13;;;;;;;5.03;0.83;;;;;;;5.19;86.49;99521.19;5014555;28;20257;-83
2023/11/24 11:18:40;;;;;;;5.90;1.63;;;;;;;5.19;86.65;99511.47;5015250;28;20226;-84
2023/11/24 11:21:10;;;;;;;10.37;1.60;;;;;;;5.22;86.74;99503.34;5015614;28;20207;-85
2023/11/24 11:23:37;;;;;;;4.23;1.10;;;;;;;5.22;85.84;99505.16;5026536;28;20206;-86
2023/11/24 11:26:06;;;;;;;6.63;0.80;;;;;;;5.25;84.39;99499.69;5014349;28;20281;-82
2023/11/24 11:28:36;;;;;;;5.80;1.10;;;;;;;5.19;84.36;99497.44;5013118;28;20621;-83
2023/11/24 11:31:32;;;;;;;6.50;1.20;;;;;;;5.24;84.98;99482.16;5014872;28;20206;-81
2023/11/24 11:34:12;;;;;;;5.73;1.20;;;;;;;5.26;83.92;99480.28;5003088;28;20301;-84
2023/11/24 11:37:01;;;;;;;3.67;0.97;;;;;;;5.31;83.33;99472.94;5018390;28;20263;-83
2023/11/24 11:39:30;;;;;;;6.23;1.00;;;;;;;5.32;83.04;99468.50;5019494;28;20203;-83